Time;durP1;ratioP1;P1;durP2;ratioP2;P2;SDS_P1;SDS_P2;PMS_P1;PMS_P2;Temp;Humidity;BMP_temperature;BMP_pressure;BME280_temperature;BME280_humidity;BME280_pressure;Samples;Min_cycle;Max_cycle;Signal;HPM_P1;HPM_P2
2023/07/21 00:00:40;;;;;;;;;;;15.90;99.90;;;;;;4591715;19;19919;-29
2023/07/21 00:02:31;;;;;;;;;;;15.90;99.90;;;;;;4592072;19;20311;-29
2023/07/21 00:04:04;;;;;;;;;;;15.90;99.90;;;;;;4590744;19;20352;-26
2023/07/21 00:05:36;;;;;;;;;;;15.90;99.90;;;;;;4591951;19;20324;-27
2023/07/21 00:07:07;;;;;;;;;;;15.90;99.90;;;;;;4591715;19;19939;-27
2023/07/21 01:12:52;;;;;;;;;;;15.40;99.90;;;;;;4590531;19;19918;-28
2023/07/21 01:14:23;;;;;;;;;;;15.40;99.90;;;;;;4594988;19;19919;-30
2023/07/21 01:15:54;;;;;;;;;;;15.40;99.90;;;;;;4593259;19;19983;-27
2023/07/21 01:17:26;;;;;;;;;;;15.40;99.90;;;;;;4594682;19;19935;-27
2023/07/21 01:18:59;;;;;;;;;;;15.30;99.90;;;;;;4593366;19;19927;-24
2023/07/21 01:20:31;;;;;;;;;;;15.30;99.90;;;;;;4592733;19;19915;-26
2023/07/21 01:22:03;;;;;;;;;;;15.30;99.90;;;;;;4593873;19;19915;-25
2023/07/21 01:23:38;;;;;;;;;;;15.30;99.90;;;;;;4592370;19;19933;-26
2023/07/21 01:25:11;;;;;;;;;;;15.20;99.90;;;;;;4594310;19;19925;-26
2023/07/21 01:34:10;;;;;;;;;;;15.20;99.90;;;;;;4594567;19;19923;-31
2023/07/21 01:35:43;;;;;;;;;;;15.20;99.90;;;;;;4595185;19;19941;-25
2023/07/21 01:37:14;;;;;;;;;;;15.20;99.90;;;;;;4593462;19;20370;-27
2023/07/21 01:38:45;;;;;;;;;;;15.20;99.90;;;;;;4591401;19;19950;-24
2023/07/21 01:40:16;;;;;;;;;;;15.20;99.90;;;;;;4594128;19;19986;-28
2023/07/21 01:41:47;;;;;;;;;;;15.20;99.90;;;;;;4594349;19;19930;-27
2023/07/21 01:43:18;;;;;;;;;;;15.20;99.90;;;;;;4593730;19;19930;-28
2023/07/21 01:44:50;;;;;;;;;;;15.30;99.90;;;;;;4593493;19;19919;-27
2023/07/21 01:46:21;;;;;;;;;;;15.30;99.90;;;;;;4591871;19;19975;-26
2023/07/21 01:47:56;;;;;;;;;;;15.20;99.90;;;;;;4593811;19;20402;-24
2023/07/21 01:49:30;;;;;;;;;;;15.20;99.90;;;;;;4594193;19;19918;-25
2023/07/21 01:51:03;;;;;;;;;;;15.10;99.90;;;;;;4592989;19;20329;-23
2023/07/21 01:52:34;;;;;;;;;;;15.10;99.90;;;;;;4593493;19;19970;-27
2023/07/21 01:54:08;;;;;;;;;;;15.10;99.90;;;;;;4592971;19;19918;-28
2023/07/21 01:55:43;;;;;;;;;;;15.10;99.90;;;;;;4592475;19;19943;-28
2023/07/21 01:57:17;;;;;;;;;;;15.00;99.90;;;;;;4594233;19;19935;-28
2023/07/21 01:58:48;;;;;;;;;;;15.10;99.90;;;;;;4592149;19;19918;-27
2023/07/21 02:00:22;;;;;;;;;;;15.10;99.90;;;;;;4592570;19;19923;-28
2023/07/21 02:01:54;;;;;;;;;;;15.00;99.90;;;;;;4591735;19;20245;-25
2023/07/21 02:03:26;;;;;;;;;;;15.00;99.90;;;;;;4593089;19;19953;-29
2023/07/21 02:04:57;;;;;;;;;;;15.00;99.90;;;;;;4592927;19;19937;-27
2023/07/21 02:06:28;;;;;;;;;;;15.00;99.90;;;;;;4593311;19;19911;-26
2023/07/21 02:07:59;;;;;;;;;;;15.00;99.90;;;;;;4590072;19;19923;-24
2023/07/21 02:09:31;;;;;;;;;;;15.00;99.90;;;;;;4592757;19;19915;-26
2023/07/21 02:11:02;;;;;;;;;;;15.00;99.90;;;;;;4592262;19;19923;-24
2023/07/21 02:12:33;;;;;;;;;;;15.00;99.90;;;;;;4592328;19;19910;-25
2023/07/21 02:14:04;;;;;;;;;;;15.00;99.90;;;;;;4594284;19;20307;-25
2023/07/21 02:15:35;;;;;;;;;;;15.00;99.90;;;;;;4592738;19;19930;-24
2023/07/21 02:17:06;;;;;;;;;;;15.00;99.90;;;;;;4594449;19;19933;-27
2023/07/21 02:18:37;;;;;;;;;;;15.00;99.90;;;;;;4593494;19;19915;-28
2023/07/21 02:20:11;;;;;;;;;;;15.10;99.90;;;;;;4592579;19;19978;-27
2023/07/21 02:21:43;;;;;;;;;;;15.00;99.90;;;;;;4591768;19;19914;-26
2023/07/21 02:23:13;;;;;;;;;;;15.00;99.90;;;;;;4591262;19;19923;-27
2023/07/21 02:24:46;;;;;;;;;;;15.00;99.90;;;;;;4592721;19;19914;-24
2023/07/21 02:26:17;;;;;;;;;;;14.90;99.90;;;;;;4591740;19;19941;-27
2023/07/21 02:27:48;;;;;;;;;;;14.90;99.90;;;;;;4593349;19;19922;-29
2023/07/21 02:29:19;;;;;;;;;;;14.90;99.90;;;;;;4592946;19;19929;-26
2023/07/21 02:31:03;;;;;;;;;;;14.90;99.90;;;;;;4592258;19;19934;-28
2023/07/21 02:32:34;;;;;;;;;;;14.90;99.90;;;;;;4591979;19;20006;-24
2023/07/21 02:34:05;;;;;;;;;;;14.90;99.90;;;;;;4591642;19;19918;-29
2023/07/21 02:35:36;;;;;;;;;;;14.80;99.90;;;;;;4593289;19;19915;-27
2023/07/21 02:37:07;;;;;;;;;;;14.80;99.90;;;;;;4593425;19;19974;-29
2023/07/21 02:38:38;;;;;;;;;;;14.80;99.90;;;;;;4591302;19;19930;-29
2023/07/21 02:40:12;;;;;;;;;;;14.80;99.90;;;;;;4593910;19;20269;-28
2023/07/21 02:41:43;;;;;;;;;;;14.80;99.90;;;;;;4591669;19;19927;-24
2023/07/21 02:43:15;;;;;;;;;;;14.80;99.90;;;;;;4593074;19;19919;-25
2023/07/21 02:44:46;;;;;;;;;;;14.70;99.90;;;;;;4592612;19;19918;-24
2023/07/21 02:46:17;;;;;;;;;;;14.80;99.90;;;;;;4592598;19;19915;-28
2023/07/21 02:47:49;;;;;;;;;;;14.70;99.90;;;;;;4590807;19;19941;-26
2023/07/21 02:49:20;;;;;;;;;;;14.70;99.90;;;;;;4592687;19;19922;-27
2023/07/21 02:50:52;;;;;;;;;;;14.70;99.90;;;;;;4591998;19;19918;-26
2023/07/21 02:52:23;;;;;;;;;;;14.70;99.90;;;;;;4592169;19;19925;-27
2023/07/21 02:53:55;;;;;;;;;;;14.70;99.90;;;;;;4591051;19;19918;-27
2023/07/21 02:55:26;;;;;;;;;;;14.60;99.90;;;;;;4592302;19;19911;-23
2023/07/21 02:56:58;;;;;;;;;;;14.70;99.90;;;;;;4591222;19;19958;-28
2023/07/21 02:58:30;;;;;;;;;;;14.60;99.90;;;;;;4591634;19;19919;-26
2023/07/21 03:00:03;;;;;;;;;;;14.60;99.90;;;;;;4591928;19;19914;-27
2023/07/21 03:01:34;;;;;;;;;;;14.60;99.90;;;;;;4591283;19;19923;-28
2023/07/21 03:03:06;;;;;;;;;;;14.60;99.90;;;;;;4593412;19;19923;-24
2023/07/21 03:04:42;;;;;;;;;;;14.60;99.90;;;;;;4590906;19;20350;-24
2023/07/21 03:06:13;;;;;;;;;;;14.60;99.90;;;;;;4591811;19;20366;-27
2023/07/21 03:07:44;;;;;;;;;;;14.60;99.90;;;;;;4591512;19;19941;-28
2023/07/21 03:09:15;;;;;;;;;;;14.60;99.90;;;;;;4593179;19;19926;-26
2023/07/21 03:10:46;;;;;;;;;;;14.60;99.90;;;;;;4591607;19;19923;-26
2023/07/21 03:12:17;;;;;;;;;;;14.60;99.90;;;;;;4592518;19;19918;-25
2023/07/21 03:13:49;;;;;;;;;;;14.60;99.90;;;;;;4592227;19;19918;-30
2023/07/21 03:15:20;;;;;;;;;;;14.60;99.90;;;;;;4591251;19;19978;-29
2023/07/21 03:16:51;;;;;;;;;;;14.60;99.90;;;;;;4592751;19;20285;-25
2023/07/21 03:18:23;;;;;;;;;;;14.60;99.90;;;;;;4591628;19;19926;-28
2023/07/21 03:19:54;;;;;;;;;;;14.60;99.90;;;;;;4592095;19;19920;-27
2023/07/21 03:21:26;;;;;;;;;;;14.60;99.90;;;;;;4590763;19;19923;-25
2023/07/21 03:22:57;;;;;;;;;;;14.60;99.90;;;;;;4592676;19;19926;-28
2023/07/21 03:24:28;;;;;;;;;;;14.60;99.90;;;;;;4590973;19;19948;-25
2023/07/21 03:25:59;;;;;;;;;;;14.60;99.90;;;;;;4590146;19;20275;-28
2023/07/21 03:27:30;;;;;;;;;;;14.60;99.90;;;;;;4592043;19;19923;-29
2023/07/21 03:29:02;;;;;;;;;;;14.60;99.90;;;;;;4591255;19;20045;-26
2023/07/21 03:30:33;;;;;;;;;;;14.60;99.90;;;;;;4591969;19;19915;-25
2023/07/21 03:32:04;;;;;;;;;;;14.50;99.90;;;;;;4591107;19;19929;-27
2023/07/21 03:33:35;;;;;;;;;;;14.60;99.90;;;;;;4591212;19;19927;-27
2023/07/21 03:35:06;;;;;;;;;;;14.60;99.90;;;;;;4591441;19;20333;-26
2023/07/21 03:36:37;;;;;;;;;;;14.60;99.90;;;;;;4592694;19;19931;-28
2023/07/21 03:38:08;;;;;;;;;;;14.60;99.90;;;;;;4590971;19;19918;-28
2023/07/21 03:39:43;;;;;;;;;;;14.60;99.90;;;;;;4591542;19;19914;-30
2023/07/21 03:41:14;;;;;;;;;;;14.60;99.90;;;;;;4590862;19;19963;-27
2023/07/21 03:42:45;;;;;;;;;;;14.60;99.90;;;;;;4591351;19;19919;-27
2023/07/21 03:44:16;;;;;;;;;;;14.60;99.90;;;;;;4590231;19;19922;-28
2023/07/21 03:45:47;;;;;;;;;;;14.70;99.90;;;;;;4592311;19;19914;-26
2023/07/21 03:47:19;;;;;;;;;;;14.70;99.90;;;;;;4590819;19;19915;-26
2023/07/21 03:48:51;;;;;;;;;;;14.70;99.90;;;;;;4589681;19;19939;-24
2023/07/21 03:50:25;;;;;;;;;;;14.70;99.90;;;;;;4590154;19;19922;-23
2023/07/21 03:51:57;;;;;;;;;;;14.80;99.90;;;;;;4591377;19;19934;-24
2023/07/21 03:53:28;;;;;;;;;;;14.80;99.90;;;;;;4591600;19;19958;-27
2023/07/21 03:55:00;;;;;;;;;;;14.90;99.90;;;;;;4591545;19;19919;-27
2023/07/21 03:56:31;;;;;;;;;;;14.90;99.90;;;;;;4591342;19;19927;-22
2023/07/21 03:58:03;;;;;;;;;;;15.00;99.90;;;;;;4590286;19;19987;-27
2023/07/21 03:59:34;;;;;;;;;;;15.00;99.90;;;;;;4591196;19;19918;-25
2023/07/21 04:01:05;;;;;;;;;;;15.00;99.90;;;;;;4592056;19;19926;-26
2023/07/21 04:02:36;;;;;;;;;;;15.10;99.90;;;;;;4591464;19;19987;-29
2023/07/21 04:04:07;;;;;;;;;;;15.20;99.90;;;;;;4591540;19;19974;-27
2023/07/21 04:05:38;;;;;;;;;;;15.20;99.90;;;;;;4590543;19;19915;-25
2023/07/21 04:07:10;;;;;;;;;;;15.20;99.90;;;;;;4590610;19;19915;-29
2023/07/21 04:08:41;;;;;;;;;;;15.20;99.90;;;;;;4589128;19;19914;-27
2023/07/21 04:10:14;;;;;;;;;;;15.20;99.90;;;;;;4590555;19;20268;-29
2023/07/21 04:11:45;;;;;;;;;;;15.20;99.90;;;;;;4591590;19;19919;-23
2023/07/21 04:13:19;;;;;;;;;;;15.20;99.90;;;;;;4588823;19;19923;-24
2023/07/21 04:14:50;;;;;;;;;;;15.30;99.90;;;;;;4590465;19;19929;-27
2023/07/21 04:16:22;;;;;;;;;;;15.30;99.90;;;;;;4590065;19;20380;-26
2023/07/21 04:17:53;;;;;;;;;;;15.30;99.90;;;;;;4566420;19;19918;-25
2023/07/21 04:19:26;;;;;;;;;;;15.30;99.90;;;;;;4589253;19;19915;-24
2023/07/21 04:20:58;;;;;;;;;;;15.40;99.90;;;;;;4590058;19;19930;-27
2023/07/21 04:22:30;;;;;;;;;;;15.40;99.90;;;;;;4589692;19;19915;-28
2023/07/21 04:24:02;;;;;;;;;;;15.40;99.90;;;;;;4590991;19;19923;-30
2023/07/21 04:25:34;;;;;;;;;;;15.40;99.90;;;;;;4590606;19;19938;-25
2023/07/21 04:27:05;;;;;;;;;;;15.50;99.90;;;;;;4590605;19;19940;-28
2023/07/21 04:28:36;;;;;;;;;;;15.50;99.90;;;;;;4590511;19;19915;-25
2023/07/21 04:30:07;;;;;;;;;;;15.50;99.90;;;;;;4591019;19;19918;-27
2023/07/21 04:31:38;;;;;;;;;;;15.60;99.90;;;;;;4593214;19;19919;-29
2023/07/21 04:33:11;;;;;;;;;;;15.50;99.90;;;;;;4596117;19;19911;-29
2023/07/21 04:34:42;;;;;;;;;;;15.60;99.90;;;;;;4594742;19;19914;-25
2023/07/21 04:36:13;;;;;;;;;;;15.60;99.90;;;;;;4595264;19;19926;-27
2023/07/21 04:37:44;;;;;;;;;;;15.70;99.90;;;;;;4594855;19;19926;-26
2023/07/21 04:39:16;;;;;;;;;;;15.60;99.90;;;;;;4593515;19;19918;-23
2023/07/21 04:40:47;;;;;;;;;;;15.70;99.90;;;;;;4592903;19;20359;-25
2023/07/21 04:42:19;;;;;;;;;;;15.70;99.90;;;;;;4595691;19;20515;-27
2023/07/21 04:43:50;;;;;;;;;;;15.70;99.90;;;;;;4595841;19;20351;-24
2023/07/21 04:45:21;;;;;;;;;;;15.70;99.90;;;;;;4595701;19;19970;-27
2023/07/21 04:46:52;;;;;;;;;;;15.80;99.90;;;;;;4594870;19;19907;-26
2023/07/21 04:48:23;;;;;;;;;;;15.80;99.90;;;;;;4593233;19;20596;-27
2023/07/21 04:49:56;;;;;;;;;;;15.80;99.90;;;;;;4593885;19;19918;-26
2023/07/21 04:51:26;;;;;;;;;;;15.80;99.90;;;;;;4594063;19;20248;-25
2023/07/21 04:52:58;;;;;;;;;;;15.80;99.90;;;;;;4593152;19;19923;-24
2023/07/21 04:54:29;;;;;;;;;;;15.80;99.90;;;;;;4593131;19;19915;-26
2023/07/21 04:56:00;;;;;;;;;;;15.80;99.90;;;;;;4595905;19;19911;-23
2023/07/21 04:57:32;;;;;;;;;;;15.80;99.90;;;;;;4595907;19;19918;-25
2023/07/21 04:59:03;;;;;;;;;;;15.90;99.90;;;;;;4593775;19;19966;-23
2023/07/21 05:00:34;;;;;;;;;;;15.90;99.90;;;;;;4594275;19;20332;-26
2023/07/21 05:02:06;;;;;;;;;;;15.90;99.90;;;;;;4593557;19;20313;-30
2023/07/21 05:03:37;;;;;;;;;;;15.90;99.90;;;;;;4593622;19;20259;-26
2023/07/21 05:05:08;;;;;;;;;;;15.90;99.90;;;;;;4593605;19;19911;-24
2023/07/21 05:06:39;;;;;;;;;;;16.00;99.90;;;;;;4593301;19;19923;-28
2023/07/21 05:08:10;;;;;;;;;;;16.00;99.90;;;;;;4592754;19;19914;-26
2023/07/21 05:09:41;;;;;;;;;;;16.00;99.90;;;;;;4592780;19;19937;-27
2023/07/21 05:11:12;;;;;;;;;;;16.00;99.90;;;;;;4592853;19;19939;-24
2023/07/21 05:12:43;;;;;;;;;;;16.00;99.90;;;;;;4593623;19;20062;-24
2023/07/21 05:14:14;;;;;;;;;;;16.00;99.90;;;;;;4594942;19;20348;-25
2023/07/21 05:15:46;;;;;;;;;;;16.00;99.90;;;;;;4594230;19;19915;-23
2023/07/21 05:17:17;;;;;;;;;;;16.10;99.90;;;;;;4593927;19;20287;-25
2023/07/21 05:18:50;;;;;;;;;;;16.10;99.90;;;;;;4593350;19;19914;-22
2023/07/21 05:20:21;;;;;;;;;;;16.10;99.90;;;;;;4593276;19;19918;-26
2023/07/21 05:21:52;;;;;;;;;;;16.20;99.90;;;;;;4590404;19;20343;-24
2023/07/21 05:23:23;;;;;;;;;;;16.20;99.90;;;;;;4592125;19;19919;-24
2023/07/21 05:24:54;;;;;;;;;;;16.20;99.90;;;;;;4595579;19;19918;-24
2023/07/21 05:26:28;;;;;;;;;;;16.20;99.90;;;;;;4595044;19;19923;-27
2023/07/21 05:27:59;;;;;;;;;;;16.20;99.90;;;;;;4593048;19;20283;-26
2023/07/21 05:29:31;;;;;;;;;;;16.20;99.90;;;;;;4593650;19;19945;-24
2023/07/21 05:31:03;;;;;;;;;;;16.20;99.90;;;;;;4593835;19;19925;-28
2023/07/21 05:32:35;;;;;;;;;;;16.30;99.90;;;;;;4593391;19;19918;-23
2023/07/21 05:34:07;;;;;;;;;;;16.30;99.90;;;;;;4593013;19;20321;-24
2023/07/21 05:35:38;;;;;;;;;;;16.30;99.90;;;;;;4592855;19;19941;-24
2023/07/21 05:37:11;;;;;;;;;;;16.30;99.90;;;;;;4592520;19;20001;-25
2023/07/21 05:38:42;;;;;;;;;;;16.30;99.90;;;;;;4593283;19;19918;-25
2023/07/21 05:40:14;;;;;;;;;;;16.30;99.90;;;;;;4592736;19;19927;-25
2023/07/21 05:41:45;;;;;;;;;;;16.40;99.90;;;;;;4593424;19;20340;-27
2023/07/21 05:43:16;;;;;;;;;;;16.40;99.90;;;;;;4590975;19;19918;-28
2023/07/21 05:44:47;;;;;;;;;;;16.40;99.90;;;;;;4592736;19;19942;-25
2023/07/21 05:46:28;;;;;;;;;;;16.40;99.90;;;;;;4590951;19;19918;-27
2023/07/21 05:48:00;;;;;;;;;;;16.40;99.90;;;;;;4591652;19;19914;-24
2023/07/21 05:49:31;;;;;;;;;;;16.40;99.90;;;;;;4591733;19;19935;-25
2023/07/21 05:51:02;;;;;;;;;;;16.40;99.90;;;;;;4591464;19;19942;-28
2023/07/21 05:52:34;;;;;;;;;;;16.50;99.90;;;;;;4594828;19;19926;-27
2023/07/21 05:54:07;;;;;;;;;;;16.50;99.90;;;;;;4594472;19;20369;-29
2023/07/21 05:55:41;;;;;;;;;;;16.50;99.90;;;;;;4593898;19;20020;-26
2023/07/21 05:57:13;;;;;;;;;;;16.50;99.90;;;;;;4593834;19;20284;-25
2023/07/21 05:58:44;;;;;;;;;;;16.50;99.90;;;;;;4593436;19;19915;-24
2023/07/21 06:00:16;;;;;;;;;;;16.60;99.90;;;;;;4593313;19;19930;-29
2023/07/21 06:01:48;;;;;;;;;;;16.60;99.90;;;;;;4592474;19;19919;-25
2023/07/21 06:03:19;;;;;;;;;;;16.60;99.90;;;;;;4592120;19;20335;-24
2023/07/21 06:04:51;;;;;;;;;;;16.60;99.90;;;;;;4592027;19;19918;-25
2023/07/21 06:06:23;;;;;;;;;;;16.70;99.90;;;;;;4592175;19;19923;-24
2023/07/21 06:07:55;;;;;;;;;;;16.70;99.90;;;;;;4594004;19;19945;-29
2023/07/21 06:09:26;;;;;;;;;;;16.80;99.90;;;;;;4592972;19;19911;-24
2023/07/21 06:10:59;;;;;;;;;;;16.80;99.90;;;;;;4593221;19;19959;-29
2023/07/21 06:12:31;;;;;;;;;;;16.80;99.90;;;;;;4593392;19;19915;-28
2023/07/21 06:14:03;;;;;;;;;;;16.80;99.90;;;;;;4593120;19;19931;-25
2023/07/21 06:15:36;;;;;;;;;;;16.80;99.90;;;;;;4592687;19;20362;-25
2023/07/21 06:17:07;;;;;;;;;;;16.90;99.90;;;;;;4592118;19;20399;-25
2023/07/21 06:18:38;;;;;;;;;;;16.90;99.90;;;;;;4591891;19;19910;-27
2023/07/21 06:20:10;;;;;;;;;;;17.00;99.90;;;;;;4591450;19;19922;-25
2023/07/21 06:21:42;;;;;;;;;;;16.90;99.90;;;;;;4590583;19;19938;-25
2023/07/21 06:23:13;;;;;;;;;;;16.90;99.90;;;;;;4594210;19;19915;-25
2023/07/21 06:24:45;;;;;;;;;;;17.00;99.90;;;;;;4592561;19;19911;-25
2023/07/21 06:26:16;;;;;;;;;;;17.00;99.90;;;;;;4593112;19;19922;-26
2023/07/21 06:27:48;;;;;;;;;;;17.00;99.90;;;;;;4592989;19;19919;-28
2023/07/21 06:29:20;;;;;;;;;;;17.10;99.90;;;;;;4593308;19;19918;-25
2023/07/21 06:30:51;;;;;;;;;;;17.10;99.90;;;;;;4592896;19;19922;-27
2023/07/21 06:32:23;;;;;;;;;;;17.10;99.90;;;;;;4593089;19;19918;-25
2023/07/21 06:33:56;;;;;;;;;;;17.10;99.90;;;;;;4593228;19;19932;-26
2023/07/21 06:35:31;;;;;;;;;;;17.10;99.90;;;;;;4593541;19;19915;-27
2023/07/21 06:37:04;;;;;;;;;;;17.10;99.90;;;;;;4591678;19;19936;-28
2023/07/21 06:38:36;;;;;;;;;;;17.10;99.90;;;;;;4592908;19;19919;-26
2023/07/21 06:40:10;;;;;;;;;;;17.20;99.90;;;;;;4593433;19;19915;-28
2023/07/21 06:41:44;;;;;;;;;;;17.20;99.90;;;;;;4592971;19;19918;-27
2023/07/21 06:43:15;;;;;;;;;;;17.20;99.90;;;;;;4592745;19;20347;-24
2023/07/21 06:44:46;;;;;;;;;;;17.30;99.90;;;;;;4593042;19;19967;-29
2023/07/21 07:16:18;;;;;;;;;;;17.60;99.90;;;;;;4587363;19;19907;-28
2023/07/21 07:17:49;;;;;;;;;;;17.70;99.90;;;;;;4592506;19;19926;-29
2023/07/21 07:21:09;;;;;;;;;;;17.70;99.90;;;;;;4591698;19;19918;-25
2023/07/21 07:22:41;;;;;;;;;;;17.80;99.90;;;;;;4592139;19;20369;-25
2023/07/21 07:24:12;;;;;;;;;;;17.90;99.90;;;;;;4591856;19;19942;-25
2023/07/21 07:25:47;;;;;;;;;;;17.80;99.90;;;;;;4592416;19;19911;-27
2023/07/21 07:27:18;;;;;;;;;;;17.90;99.90;;;;;;4590648;19;19942;-25
2023/07/21 07:31:31;;;;;;;;;;;17.90;99.90;;;;;;4590430;19;19918;-29
2023/07/21 07:33:02;;;;;;;;;;;18.00;99.90;;;;;;4590330;19;19922;-25
2023/07/21 07:34:33;;;;;;;;;;;18.00;99.90;;;;;;4590800;19;19918;-25
2023/07/21 07:36:04;;;;;;;;;;;18.00;99.90;;;;;;4590702;19;19911;-24
2023/07/21 07:37:36;;;;;;;;;;;18.00;99.90;;;;;;4590990;19;19918;-27
2023/07/21 07:39:08;;;;;;;;;;;18.10;99.90;;;;;;4591819;19;20357;-24
2023/07/21 07:40:39;;;;;;;;;;;18.10;99.90;;;;;;4591820;19;20357;-25
2023/07/21 07:42:10;;;;;;;;;;;18.10;99.90;;;;;;4591982;19;19949;-26
2023/07/21 07:43:41;;;;;;;;;;;18.20;99.90;;;;;;4591292;19;19911;-29
2023/07/21 07:45:12;;;;;;;;;;;18.20;99.90;;;;;;4591993;19;19915;-24
2023/07/21 07:46:44;;;;;;;;;;;18.20;99.90;;;;;;4591965;19;19927;-25
2023/07/21 07:48:15;;;;;;;;;;;18.20;99.90;;;;;;4591520;19;19919;-24
2023/07/21 07:49:46;;;;;;;;;;;18.20;99.90;;;;;;4591133;19;19911;-25
2023/07/21 07:51:18;;;;;;;;;;;18.30;99.90;;;;;;4591810;19;19918;-29
2023/07/21 07:52:49;;;;;;;;;;;18.30;99.90;;;;;;4591677;19;19911;-24
2023/07/21 07:54:23;;;;;;;;;;;18.40;99.90;;;;;;4591693;19;19915;-24
2023/07/21 07:55:54;;;;;;;;;;;18.40;99.90;;;;;;4590528;19;19970;-29
2023/07/21 07:57:26;;;;;;;;;;;18.50;99.90;;;;;;4590998;19;19926;-27
2023/07/21 07:58:57;;;;;;;;;;;18.50;99.90;;;;;;4591294;19;19929;-28
2023/07/21 08:00:29;;;;;;;;;;;18.50;99.90;;;;;;4589901;19;19923;-28
2023/07/21 08:02:00;;;;;;;;;;;18.50;99.90;;;;;;4590833;19;19919;-25
2023/07/21 08:03:31;;;;;;;;;;;18.50;99.90;;;;;;4591684;19;20313;-24
2023/07/21 08:05:03;;;;;;;;;;;18.50;99.90;;;;;;4590517;19;19919;-24
2023/07/21 08:06:34;;;;;;;;;;;18.60;99.90;;;;;;4588967;19;19971;-26
2023/07/21 08:08:06;;;;;;;;;;;18.50;99.90;;;;;;4590906;19;19926;-25
2023/07/21 08:09:37;;;;;;;;;;;18.50;99.90;;;;;;4589902;19;19952;-30
2023/07/21 08:11:08;;;;;;;;;;;18.50;99.90;;;;;;4588621;19;20325;-25
2023/07/21 08:12:39;;;;;;;;;;;18.50;99.90;;;;;;4590801;19;20245;-25
2023/07/21 08:14:10;;;;;;;;;;;18.60;99.90;;;;;;4592949;19;20269;-26
2023/07/21 08:15:42;;;;;;;;;;;18.60;99.90;;;;;;4589743;19;19911;-25
2023/07/21 08:17:13;;;;;;;;;;;18.70;99.90;;;;;;4589412;19;19923;-25
2023/07/21 08:18:44;;;;;;;;;;;18.80;99.90;;;;;;4590848;19;19918;-26
2023/07/21 08:20:16;;;;;;;;;;;19.00;99.90;;;;;;4591110;19;19915;-25
2023/07/21 08:21:48;;;;;;;;;;;19.10;99.90;;;;;;4589072;19;19914;-23
2023/07/21 08:23:19;;;;;;;;;;;19.20;99.90;;;;;;4590471;19;19911;-29
2023/07/21 08:24:50;;;;;;;;;;;19.30;99.90;;;;;;4590773;19;19918;-27
2023/07/21 08:26:21;;;;;;;;;;;19.30;99.90;;;;;;4590952;19;19915;-24
2023/07/21 08:27:53;;;;;;;;;;;19.40;99.90;;;;;;4589790;19;19918;-26
2023/07/21 08:29:23;;;;;;;;;;;19.50;99.90;;;;;;4590121;19;19977;-30
2023/07/21 08:30:54;;;;;;;;;;;19.60;99.90;;;;;;4590581;19;19911;-27
2023/07/21 08:32:26;;;;;;;;;;;19.60;99.90;;;;;;4590394;19;20252;-25
2023/07/21 08:33:56;;;;;;;;;;;19.70;99.90;;;;;;4590862;19;19922;-30
2023/07/21 08:47:24;;;;;;;;;;;20.40;99.90;;;;;;4592195;19;19907;-25
2023/07/21 08:48:55;;;;;;;;;;;20.20;99.90;;;;;;4589341;19;19914;-26
2023/07/21 08:50:26;;;;;;;;;;;20.20;99.90;;;;;;4590300;19;19942;-26
2023/07/21 08:52:13;;;;;;;;;;;20.20;99.90;;;;;;4590466;19;19919;-26
2023/07/21 08:53:44;;;;;;;;;;;20.20;99.90;;;;;;4589432;19;19929;-31
2023/07/21 08:55:15;;;;;;;;;;;20.20;99.90;;;;;;4590646;19;20321;-26
2023/07/21 08:56:46;;;;;;;;;;;20.20;99.90;;;;;;4589108;19;19946;-30
2023/07/21 08:58:17;;;;;;;;;;;20.20;99.90;;;;;;4590073;19;19939;-25
2023/07/21 08:59:51;;;;;;;;;;;20.20;99.90;;;;;;4590242;19;19919;-25
2023/07/21 09:01:22;;;;;;;;;;;20.20;99.90;;;;;;4588174;19;20286;-24
2023/07/21 09:02:57;;;;;;;;;;;20.30;99.90;;;;;;4588456;19;19929;-26
2023/07/21 09:04:28;;;;;;;;;;;20.30;99.90;;;;;;4589123;19;19952;-23
2023/07/21 09:06:01;;;;;;;;;;;20.40;99.90;;;;;;4589697;19;19934;-25
2023/07/21 09:07:34;;;;;;;;;;;20.40;99.90;;;;;;4590352;19;19915;-25
2023/07/21 09:09:05;;;;;;;;;;;20.40;99.90;;;;;;4588725;19;19928;-28
2023/07/21 09:10:36;;;;;;;;;;;20.40;99.90;;;;;;4590391;19;19996;-25
2023/07/21 09:12:07;;;;;;;;;;;20.50;99.90;;;;;;4590173;19;19919;-25
2023/07/21 09:13:39;;;;;;;;;;;20.50;99.90;;;;;;4590123;19;19919;-25
2023/07/21 09:15:10;;;;;;;;;;;20.60;99.90;;;;;;4589623;19;19914;-27
2023/07/21 09:16:42;;;;;;;;;;;20.60;99.90;;;;;;4589408;19;19918;-28
2023/07/21 09:18:13;;;;;;;;;;;20.70;99.90;;;;;;4593894;19;20244;-30
2023/07/21 09:19:45;;;;;;;;;;;20.70;99.90;;;;;;4594468;19;19919;-29
2023/07/21 09:21:20;;;;;;;;;;;20.80;99.90;;;;;;4593028;19;19919;-27
2023/07/21 09:22:51;;;;;;;;;;;20.90;99.90;;;;;;4592996;19;20277;-25
2023/07/21 09:24:22;;;;;;;;;;;21.00;99.90;;;;;;4594337;19;19918;-25
2023/07/21 09:25:54;;;;;;;;;;;21.00;99.90;;;;;;4593606;19;20242;-25
2023/07/21 09:27:25;;;;;;;;;;;21.00;99.90;;;;;;4594045;19;19978;-27
2023/07/21 09:28:57;;;;;;;;;;;20.80;99.90;;;;;;4592055;19;19918;-26
2023/07/21 09:30:28;;;;;;;;;;;20.80;99.90;;;;;;4592559;19;19926;-28
2023/07/21 09:32:00;;;;;;;;;;;20.80;99.90;;;;;;4593238;19;19926;-27
2023/07/21 09:33:32;;;;;;;;;;;20.90;99.90;;;;;;4594023;19;19922;-25
2023/07/21 09:35:04;;;;;;;;;;;20.90;99.90;;;;;;4594049;19;19983;-25
2023/07/21 09:36:44;;;;;;;;;;;20.90;99.90;;;;;;4593061;19;20002;-27
2023/07/21 09:38:20;;;;;;;;;;;20.90;99.90;;;;;;4591439;19;19914;-28
2023/07/21 09:39:52;;;;;;;;;;;20.80;99.90;;;;;;4593968;19;19915;-29
2023/07/21 09:41:24;;;;;;;;;;;20.80;99.90;;;;;;4592028;19;19919;-25
2023/07/21 09:42:55;;;;;;;;;;;20.80;99.90;;;;;;4592244;19;20304;-26
2023/07/21 09:44:26;;;;;;;;;;;20.80;99.90;;;;;;4591513;19;20408;-25
2023/07/21 09:46:21;;;;;;;;;;;21.00;99.90;;;;;;4591255;19;19971;-28
2023/07/21 09:47:52;;;;;;;;;;;21.00;99.90;;;;;;4591619;19;20015;-25
2023/07/21 09:49:25;;;;;;;;;;;21.10;99.90;;;;;;4592060;19;20297;-24
2023/07/21 09:50:57;;;;;;;;;;;21.10;99.90;;;;;;4591694;19;19918;-29
2023/07/21 09:52:30;;;;;;;;;;;21.10;99.90;;;;;;4591646;19;19918;-25
2023/07/21 09:54:02;;;;;;;;;;;21.00;99.90;;;;;;4591250;19;19946;-25
2023/07/21 09:55:35;;;;;;;;;;;20.90;99.90;;;;;;4591695;19;19914;-28
2023/07/21 09:57:07;;;;;;;;;;;20.90;99.90;;;;;;4591332;19;19914;-25
2023/07/21 09:58:41;;;;;;;;;;;20.80;99.90;;;;;;4591322;19;20325;-26
2023/07/21 10:00:17;;;;;;;;;;;20.80;99.90;;;;;;4591300;19;20257;-26
2023/07/21 10:01:49;;;;;;;;;;;20.80;99.90;;;;;;4591753;19;19919;-30
2023/07/21 10:03:22;;;;;;;;;;;20.70;99.90;;;;;;4592066;19;19986;-25
2023/07/21 10:04:53;;;;;;;;;;;20.70;99.90;;;;;;4593483;19;19974;-28
2023/07/21 10:06:25;;;;;;;;;;;20.80;99.90;;;;;;4591497;19;20000;-25
2023/07/21 10:07:57;;;;;;;;;;;20.90;99.90;;;;;;4592120;19;19923;-25
2023/07/21 10:09:29;;;;;;;;;;;21.00;99.90;;;;;;4592397;19;19911;-29
2023/07/21 10:11:00;;;;;;;;;;;21.10;99.90;;;;;;4591920;19;19914;-26
2023/07/21 10:12:46;;;;;;;;;;;21.20;99.90;;;;;;4593770;19;19919;-28
2023/07/21 10:14:30;;;;;;;;;;;21.10;99.90;;;;;;4594213;19;19938;-28
2023/07/21 10:16:08;;;;;;;;;;;21.00;99.90;;;;;;4592413;19;20353;-26
2023/07/21 10:17:58;;;;;;;;;;;20.90;99.90;;;;;;4593227;19;19919;-26
2023/07/21 10:19:30;;;;;;;;;;;20.80;99.90;;;;;;4592463;19;20269;-27
2023/07/21 10:21:01;;;;;;;;;;;20.80;99.90;;;;;;4593182;19;20271;-25
2023/07/21 10:22:32;;;;;;;;;;;20.80;99.90;;;;;;4593502;19;19922;-30
2023/07/21 10:24:03;;;;;;;;;;;20.80;99.90;;;;;;4592893;19;19919;-26
2023/07/21 10:26:00;;;;;;;;;;;20.90;99.90;;;;;;4592924;19;20256;-26
2023/07/21 10:27:32;;;;;;;;;;;21.00;99.90;;;;;;4590527;19;20420;-26
2023/07/21 10:29:15;;;;;;;;;;;21.00;99.90;;;;;;4587985;19;19919;-26
2023/07/21 10:30:46;;;;;;;;;;;21.10;99.90;;;;;;4590990;19;19918;-26
2023/07/21 10:32:18;;;;;;;;;;;21.10;99.90;;;;;;4590292;19;19921;-26
2023/07/21 10:34:07;;;;;;;;;;;21.20;99.90;;;;;;4590368;19;20242;-29
2023/07/21 10:35:38;;;;;;;;;;;21.20;99.90;;;;;;4591074;19;19929;-29
2023/07/21 10:37:10;;;;;;;;;;;21.20;99.90;;;;;;4591421;19;19923;-26
2023/07/21 10:38:41;;;;;;;;;;;21.20;99.90;;;;;;4590357;19;19918;-32
2023/07/21 10:40:11;;;;;;;;;;;21.00;99.90;;;;;;4592851;19;19935;-27
2023/07/21 10:41:43;;;;;;;;;;;20.90;99.90;;;;;;4590682;19;20270;-26
2023/07/21 10:43:14;;;;;;;;;;;21.00;99.90;;;;;;4590430;19;19918;-25
2023/07/21 10:44:46;;;;;;;;;;;21.00;99.90;;;;;;4590307;19;19973;-25
2023/07/21 10:46:17;;;;;;;;;;;21.00;99.90;;;;;;4590525;19;19922;-25
2023/07/21 10:47:48;;;;;;;;;;;20.10;99.90;;;;;;4590610;19;19974;-25
2023/07/21 10:49:19;;;;;;;;;;;19.70;99.90;;;;;;4589070;19;19935;-25
2023/07/21 10:50:54;;;;;;;;;;;19.60;99.90;;;;;;4590468;19;19929;-24
2023/07/21 10:52:25;;;;;;;;;;;19.70;99.90;;;;;;4590392;19;19919;-30
2023/07/21 10:53:56;;;;;;;;;;;19.80;99.90;;;;;;4590382;19;19930;-26